Terminal Aerodrome Forecast
Issued by NWS

Home | Current Version | Previous Version | Text Only | Print | Product List | Glossary On
Versions: 1 2 3 4 5 6 7 8 9 10 11 12 13 14 15 16 17 18 19 20 21 22 23 24 25 26 27
441
FTUS41 KPBZ 240527
TAFZZV
TAF
KZZV 240527Z 2406/2506 33004KT P6SM OVC030
     FM240800 36004KT P6SM OVC015
     FM241100 02005KT 5SM -SHRA BR OVC008
     FM241500 05007KT 3SM +SHRA OVC008
     FM242000 06008KT 3SM SHRA OVC015
     FM250100 11005KT 2SM SHRA BR OVC008=

USA.gov is the U.S. government's official web portal to all federal, state and local government web resources and services.